createdAt,value
2018-12-16T00:01:58.645Z,57.97
2018-12-16T00:04:27.112Z,57.60
2018-12-16T00:06:55.457Z,55.83
2018-12-16T00:09:23.840Z,57.73
2018-12-16T00:11:52.187Z,56.40
2018-12-16T00:14:20.806Z,53.47
2018-12-16T00:16:49.179Z,55.57
2018-12-16T00:19:17.592Z,54.73
2018-12-16T00:21:46.440Z,54.13
2018-12-16T00:24:14.851Z,58.37
2018-12-16T00:26:54.652Z,53.20
2018-12-16T00:29:23.168Z,55.27
2018-12-16T00:31:51.581Z,59.00
2018-12-16T00:34:19.897Z,55.60
2018-12-16T00:36:48.316Z,57.37
2018-12-16T00:39:17.195Z,53.10
2018-12-16T00:41:45.551Z,51.00
2018-12-16T00:44:14.199Z,49.57
2018-12-16T00:46:42.977Z,54.87
2018-12-16T00:49:11.431Z,52.83
2018-12-16T00:51:39.851Z,51.30
2018-12-16T00:54:08.780Z,46.67
2018-12-16T00:56:37.168Z,47.67
2018-12-16T00:59:05.562Z,52.57
2018-12-16T01:04:13.163Z,51.83
2018-12-16T01:06:41.609Z,46.10
2018-12-16T01:09:09.934Z,45.40
2018-12-16T01:11:38.321Z,47.90
2018-12-16T01:14:06.810Z,43.13
2018-12-16T01:16:35.190Z,44.37
2018-12-16T01:19:03.505Z,46.10
2018-12-16T01:21:31.816Z,42.00
2018-12-16T01:24:00.229Z,43.37
2018-12-16T01:26:28.691Z,41.43
2018-12-16T01:28:57.052Z,41.93
2018-12-16T01:31:25.434Z,41.67
2018-12-16T01:33:53.818Z,38.50
2018-12-16T01:36:22.075Z,36.87
2018-12-16T01:38:50.463Z,39.93
2018-12-16T01:41:18.781Z,34.90
2018-12-16T01:43:47.142Z,38.90
2018-12-16T01:46:15.502Z,36.27
2018-12-16T01:48:43.858Z,36.73
2018-12-16T01:51:12.246Z,31.47
2018-12-16T01:53:40.628Z,34.63
2018-12-16T01:56:08.984Z,36.30
2018-12-16T01:58:37.331Z,33.53
2018-12-16T02:01:05.790Z,36.63
2018-12-16T02:03:34.210Z,33.20
2018-12-16T02:06:02.545Z,33.63
2018-12-16T02:08:30.882Z,32.73
2018-12-16T02:10:59.326Z,38.80
2018-12-16T02:13:27.921Z,33.23
2018-12-16T02:15:56.318Z,31.87
2018-12-16T02:18:24.681Z,33.03
2018-12-16T02:20:55.268Z,31.80
2018-12-16T02:23:23.613Z,29.13
2018-12-16T02:25:52.458Z,30.50
2018-12-16T02:28:20.782Z,29.03
2018-12-16T02:30:49.159Z,29.40
2018-12-16T02:33:17.542Z,30.53
2018-12-16T02:35:45.868Z,28.00
2018-12-16T02:38:14.165Z,29.07
2018-12-16T02:40:42.646Z,30.63
2018-12-16T02:43:11.005Z,27.53
2018-12-16T02:45:39.341Z,26.90
2018-12-16T02:48:07.700Z,24.53
2018-12-16T02:50:36.016Z,21.90
2018-12-16T02:53:04.963Z,24.73
2018-12-16T02:55:33.445Z,22.73
2018-12-16T02:58:01.899Z,21.50
2018-12-16T03:00:30.278Z,21.53
2018-12-16T03:02:58.687Z,21.17
2018-12-16T03:05:27.019Z,23.20
2018-12-16T03:07:55.404Z,22.50
2018-12-16T03:10:23.733Z,22.27
2018-12-16T03:12:52.172Z,22.73
2018-12-16T03:15:20.499Z,25.57
2018-12-16T03:17:48.856Z,24.40
2018-12-16T03:20:17.382Z,25.33
2018-12-16T03:22:45.819Z,23.33
2018-12-16T03:25:14.375Z,27.60
2018-12-16T03:27:42.697Z,27.23
2018-12-16T03:30:11.066Z,29.17
2018-12-16T03:32:39.869Z,25.63
2018-12-16T03:35:08.659Z,28.90
2018-12-16T03:37:37.040Z,32.07
2018-12-16T03:40:06.060Z,27.73
2018-12-16T03:42:34.519Z,29.37
2018-12-16T03:45:03.046Z,31.87
2018-12-16T03:47:31.490Z,32.63
2018-12-16T03:49:59.836Z,30.73
2018-12-16T03:52:28.253Z,29.87
2018-12-16T03:54:56.571Z,31.20
2018-12-16T03:57:24.901Z,30.97
2018-12-16T03:59:53.251Z,33.03
2018-12-16T04:02:21.643Z,32.07
2018-12-16T04:04:49.989Z,34.83
2018-12-16T04:07:18.354Z,33.23
2018-12-16T04:09:46.695Z,33.23
2018-12-16T04:12:14.946Z,33.13
2018-12-16T04:14:43.307Z,31.80
2018-12-16T04:17:11.664Z,35.13
2018-12-16T04:19:40.081Z,37.47
2018-12-16T04:22:08.369Z,34.53
2018-12-16T04:24:36.710Z,38.30
2018-12-16T04:27:05.154Z,35.87
2018-12-16T04:29:33.478Z,39.13
2018-12-16T04:32:01.819Z,38.90
2018-12-16T04:34:30.126Z,38.47
2018-12-16T04:36:58.417Z,36.63
2018-12-16T04:39:26.726Z,36.40
2018-12-16T04:41:55.121Z,38.93
2018-12-16T04:44:23.492Z,35.37
2018-12-16T04:46:51.810Z,38.43
2018-12-16T04:49:20.112Z,37.17
2018-12-16T04:51:48.778Z,40.23
2018-12-16T04:54:17.481Z,41.47
2018-12-16T04:56:45.826Z,41.43
2018-12-16T04:59:14.225Z,39.23
2018-12-16T05:01:42.654Z,41.47
2018-12-16T05:04:10.993Z,43.30
2018-12-16T05:06:39.517Z,40.57
2018-12-16T05:09:08.346Z,43.77
2018-12-16T05:11:36.868Z,38.73
2018-12-16T05:14:05.417Z,42.00
2018-12-16T05:16:33.703Z,41.40
2018-12-16T05:19:02.042Z,41.17
2018-12-16T05:21:30.329Z,39.73
2018-12-16T05:23:58.635Z,40.67
2018-12-16T05:26:26.945Z,37.57
2018-12-16T05:28:55.275Z,37.83
2018-12-16T05:31:23.542Z,41.87
2018-12-16T05:33:51.912Z,38.70
2018-12-16T05:36:20.352Z,38.93
2018-12-16T05:38:49.709Z,35.83
2018-12-16T05:41:18.250Z,39.63
2018-12-16T05:43:46.574Z,36.27
2018-12-16T05:46:14.975Z,38.30
2018-12-16T05:48:43.242Z,36.87
2018-12-16T05:51:11.562Z,39.67
2018-12-16T05:53:39.893Z,40.10
2018-12-16T05:56:08.215Z,40.47
2018-12-16T05:58:36.508Z,39.30
2018-12-16T06:01:04.801Z,37.57
2018-12-16T06:03:34.133Z,39.73
2018-12-16T06:06:02.431Z,38.87
2018-12-16T06:08:30.913Z,41.03
2018-12-16T06:10:59.243Z,43.57
2018-12-16T06:13:27.540Z,42.30
2018-12-16T06:15:55.898Z,39.80
2018-12-16T06:18:24.196Z,42.87
2018-12-16T06:20:52.473Z,40.93
2018-12-16T06:23:21.218Z,40.53
2018-12-16T06:25:49.497Z,38.70
2018-12-16T06:28:18.379Z,39.20
2018-12-16T06:30:47.178Z,38.33
2018-12-16T06:33:15.531Z,39.20
2018-12-16T06:35:44.319Z,40.47
2018-12-16T06:38:12.684Z,38.70
2018-12-16T06:40:41.037Z,38.07
2018-12-16T06:43:09.385Z,36.63
2018-12-16T06:45:37.764Z,36.63
2018-12-16T06:48:06.057Z,37.93
2018-12-16T06:50:35.060Z,36.00
2018-12-16T06:53:03.440Z,37.90
2018-12-16T06:55:31.832Z,35.83
2018-12-16T06:58:00.239Z,34.77
2018-12-16T07:00:28.692Z,38.33
2018-12-16T07:02:57.129Z,34.40
2018-12-16T07:05:26.019Z,35.70
2018-12-16T07:07:55.297Z,34.90
2018-12-16T07:10:23.797Z,35.60
2018-12-16T07:12:52.129Z,33.90
2018-12-16T07:15:20.929Z,34.13
2018-12-16T07:17:49.427Z,31.17
2018-12-16T07:20:18.050Z,32.33
2018-12-16T07:22:47.216Z,32.57
2018-12-16T07:25:15.875Z,32.80
2018-12-16T07:27:44.179Z,30.00
2018-12-16T07:30:12.957Z,33.63
2018-12-16T07:32:41.399Z,30.40
2018-12-16T07:35:09.864Z,30.13
2018-12-16T07:37:38.402Z,31.87
2018-12-16T07:40:07.468Z,30.17
2018-12-16T07:42:35.913Z,32.10
2018-12-16T07:45:05.272Z,26.93
2018-12-16T07:47:33.737Z,32.33
2018-12-16T07:50:02.169Z,31.50
2018-12-16T07:52:30.760Z,32.47
2018-12-16T07:54:59.303Z,29.67
2018-12-16T07:57:27.645Z,27.87
2018-12-16T07:59:56.825Z,28.83
2018-12-16T08:02:25.167Z,31.00
2018-12-16T08:04:53.542Z,28.80
2018-12-16T08:07:21.873Z,28.00
2018-12-16T08:09:50.219Z,33.70
2018-12-16T08:12:18.605Z,31.90
2018-12-16T08:14:47.833Z,29.57
2018-12-16T08:17:16.150Z,27.40
2018-12-16T08:19:44.568Z,26.67
2018-12-16T08:22:13.084Z,28.13
2018-12-16T08:24:41.367Z,27.03
2018-12-16T08:27:09.694Z,24.20
2018-12-16T08:29:38.242Z,26.10
2018-12-16T08:32:06.642Z,25.90
2018-12-16T08:34:35.693Z,28.00
2018-12-16T08:37:04.137Z,28.30
2018-12-16T08:39:32.592Z,28.97
2018-12-16T08:42:00.932Z,26.13
2018-12-16T08:44:29.238Z,26.13
2018-12-16T08:46:57.609Z,28.60
2018-12-16T08:49:25.915Z,29.57
2018-12-16T08:51:54.217Z,30.30
2018-12-16T08:54:22.566Z,30.43
2018-12-16T08:56:50.903Z,28.77
2018-12-16T08:59:19.276Z,26.87
2018-12-16T09:01:47.929Z,25.63
2018-12-16T09:04:16.781Z,27.87
2018-12-16T09:06:45.108Z,25.97
2018-12-16T09:09:13.937Z,29.13
2018-12-16T09:11:42.424Z,29.70
2018-12-16T09:14:10.791Z,31.47
2018-12-16T09:16:39.209Z,28.80
2018-12-16T09:19:07.952Z,31.53
2018-12-16T09:21:36.291Z,25.50
2018-12-16T09:24:04.706Z,27.43
2018-12-16T09:26:32.981Z,28.67
2018-12-16T09:29:02.018Z,25.80
2018-12-16T09:31:30.418Z,28.33
2018-12-16T09:33:58.729Z,25.00
2018-12-16T09:36:27.037Z,27.33
2018-12-16T09:38:55.384Z,25.13
2018-12-16T09:41:23.693Z,29.47
2018-12-16T09:43:52.001Z,27.73
2018-12-16T09:46:20.333Z,23.40
2018-12-16T09:48:48.901Z,21.50
2018-12-16T09:51:17.253Z,21.03
2018-12-16T09:53:45.559Z,20.37
2018-12-16T09:56:14.023Z,27.27
2018-12-16T09:58:42.345Z,20.83
2018-12-16T10:01:10.884Z,25.93
2018-12-16T10:03:39.322Z,24.13
2018-12-16T10:06:07.742Z,28.13
2018-12-16T10:08:36.228Z,28.77
2018-12-16T10:11:04.674Z,23.50
2018-12-16T10:13:32.984Z,24.23
2018-12-16T10:16:01.317Z,27.53
2018-12-16T10:18:30.327Z,23.03
2018-12-16T10:20:58.812Z,21.17
2018-12-16T10:23:27.363Z,23.03
2018-12-16T10:25:56.069Z,20.43
2018-12-16T10:28:24.531Z,21.70
2018-12-16T10:30:52.925Z,24.97
2018-12-16T10:33:21.294Z,25.13
2018-12-16T10:35:49.734Z,24.10
2018-12-16T10:38:18.024Z,22.20
2018-12-16T10:40:46.312Z,21.50
2018-12-16T10:43:14.677Z,20.27
2018-12-16T10:45:43.846Z,20.13
2018-12-16T10:48:13.302Z,19.47
2018-12-16T10:50:42.069Z,19.03
2018-12-16T10:53:10.964Z,19.80
2018-12-16T10:55:39.326Z,19.73
2018-12-16T10:58:08.325Z,20.17
2018-12-16T11:00:42.072Z,19.03
2018-12-16T11:03:12.071Z,19.67
2018-12-16T11:05:40.940Z,18.97
2018-12-16T11:08:09.252Z,19.77
2018-12-16T11:10:37.713Z,20.93
2018-12-16T11:13:06.449Z,18.17
2018-12-16T11:15:34.822Z,21.53
2018-12-16T11:18:03.207Z,20.80
2018-12-16T11:20:31.859Z,21.10
2018-12-16T11:23:00.214Z,17.97
2018-12-16T11:25:29.098Z,17.97
2018-12-16T11:27:57.410Z,20.83
2018-12-16T11:30:25.685Z,19.30
2018-12-16T11:32:54.042Z,18.20
2018-12-16T11:35:22.720Z,21.67
2018-12-16T11:37:51.172Z,20.60
2018-12-16T11:40:19.807Z,19.60
2018-12-16T11:42:48.129Z,18.93
2018-12-16T11:45:16.768Z,21.23
2018-12-16T11:47:45.477Z,22.13
2018-12-16T11:50:14.290Z,18.90
2018-12-16T11:52:43.168Z,18.30
2018-12-16T11:55:12.951Z,23.30
2018-12-16T11:57:41.558Z,20.30
2018-12-16T12:00:10.053Z,20.77
2018-12-16T12:02:38.395Z,18.97
2018-12-16T12:05:07.182Z,20.13
2018-12-16T12:07:36.122Z,17.97
2018-12-16T12:10:05.465Z,18.17
2018-12-16T12:12:33.798Z,19.07
2018-12-16T12:15:02.552Z,19.10
2018-12-16T12:17:30.839Z,18.17
2018-12-16T12:19:59.402Z,20.63
2018-12-16T12:22:27.857Z,19.93
2018-12-16T12:24:56.206Z,19.37
2018-12-16T12:27:24.557Z,24.80
2018-12-16T12:29:53.151Z,19.70
2018-12-16T12:32:21.582Z,19.43
2018-12-16T12:34:50.075Z,21.87
2018-12-16T12:37:18.553Z,20.80
2018-12-16T12:39:46.865Z,20.53
2018-12-16T12:42:15.226Z,17.53
2018-12-16T12:44:45.096Z,18.67
2018-12-16T12:47:14.201Z,21.50
2018-12-16T12:49:45.095Z,18.13
2018-12-16T12:52:14.353Z,22.37
2018-12-16T12:54:42.862Z,18.83
2018-12-16T12:57:12.200Z,20.10
2018-12-16T12:59:41.149Z,20.73
2018-12-16T13:02:10.021Z,20.60
2018-12-16T13:04:38.400Z,22.30
2018-12-16T13:07:07.077Z,22.27
2018-12-16T13:09:37.249Z,22.70
2018-12-16T13:12:06.220Z,21.90
2018-12-16T13:14:34.549Z,25.43
2018-12-16T13:17:03.646Z,22.27
2018-12-16T13:19:32.144Z,20.57
2018-12-16T13:22:00.618Z,20.20
2018-12-16T13:24:29.146Z,21.30
2018-12-16T13:26:57.630Z,18.07
2018-12-16T13:29:26.098Z,20.07
2018-12-16T13:31:55.517Z,19.20
2018-12-16T13:34:24.408Z,19.80
2018-12-16T13:36:54.575Z,21.47
2018-12-16T13:39:23.368Z,20.07
2018-12-16T13:41:52.637Z,19.70
2018-12-16T13:44:21.419Z,19.43
2018-12-16T13:46:50.214Z,22.17
2018-12-16T13:49:18.840Z,21.57
2018-12-16T13:51:47.110Z,21.73
2018-12-16T13:54:15.927Z,22.13
2018-12-16T13:56:44.458Z,19.63
2018-12-16T13:59:12.845Z,18.67
2018-12-16T14:01:42.399Z,19.53
2018-12-16T14:04:11.538Z,21.03
2018-12-16T14:06:40.277Z,17.77
2018-12-16T14:09:09.119Z,17.37
2018-12-16T14:11:37.484Z,21.77
2018-12-16T14:14:06.107Z,21.00
2018-12-16T14:16:34.807Z,18.87
2018-12-16T14:19:03.650Z,22.50
2018-12-16T14:21:31.966Z,21.13
2018-12-16T14:24:00.301Z,20.83
2018-12-16T14:26:28.637Z,19.63
2018-12-16T14:28:57.707Z,24.13
2018-12-16T14:31:26.020Z,24.13
2018-12-16T14:33:55.039Z,20.17
2018-12-16T14:36:24.042Z,37.43
2018-12-16T14:38:52.393Z,22.10
2018-12-16T14:41:22.061Z,29.17
2018-12-16T14:43:50.513Z,25.30
2018-12-16T14:46:18.821Z,27.27
2018-12-16T14:48:47.279Z,25.57
2018-12-16T14:51:16.133Z,23.77
2018-12-16T14:53:44.490Z,23.30
2018-12-16T14:56:12.861Z,20.80
2018-12-16T14:58:41.972Z,21.37
2018-12-16T15:01:10.402Z,19.43
2018-12-16T15:03:38.949Z,25.73
2018-12-16T15:06:07.787Z,34.10
2018-12-16T15:08:36.393Z,22.03
2018-12-16T15:11:06.170Z,25.60
2018-12-16T15:13:34.734Z,29.93
2018-12-16T15:16:03.199Z,21.87
2018-12-16T15:18:31.684Z,19.30
2018-12-16T15:21:00.089Z,24.60
2018-12-16T15:23:28.404Z,18.67
2018-12-16T15:26:02.041Z,27.77
2018-12-16T15:28:27.159Z,22.80
2018-12-16T15:30:55.643Z,20.77
2018-12-16T15:33:23.977Z,22.03
2018-12-16T15:35:52.306Z,23.10
2018-12-16T15:38:20.585Z,21.17
2018-12-16T15:40:49.555Z,20.03
2018-12-16T15:43:17.902Z,20.20
2018-12-16T15:45:46.429Z,26.93
2018-12-16T15:48:14.802Z,23.63
2018-12-16T15:50:47.940Z,22.63
2018-12-16T15:53:17.267Z,22.20
2018-12-16T15:55:45.733Z,20.70
2018-12-16T15:58:14.123Z,21.40
2018-12-16T16:00:42.433Z,22.40
2018-12-16T16:03:10.878Z,28.27
2018-12-16T16:05:39.294Z,23.47
2018-12-16T16:08:07.617Z,23.77
2018-12-16T16:10:36.059Z,21.57
2018-12-16T16:13:04.700Z,21.63
2018-12-16T16:15:33.164Z,23.93
2018-12-16T16:18:01.776Z,25.13
2018-12-16T16:20:30.458Z,22.63
2018-12-16T16:22:58.769Z,20.97
2018-12-16T16:25:27.819Z,19.90
2018-12-16T16:27:56.116Z,19.40
2018-12-16T16:30:24.574Z,20.43
2018-12-16T16:32:52.940Z,22.03
2018-12-16T16:35:21.332Z,21.77
2018-12-16T16:37:49.844Z,23.43
2018-12-16T16:40:18.802Z,21.33
2018-12-16T16:42:47.169Z,21.60
2018-12-16T16:45:15.660Z,20.93
2018-12-16T16:47:44.890Z,22.87
2018-12-16T16:50:13.708Z,22.63
2018-12-16T16:52:42.103Z,22.37
2018-12-16T16:55:10.468Z,26.07
2018-12-16T16:57:38.848Z,23.23
2018-12-16T17:00:08.547Z,25.63
2018-12-16T17:02:36.904Z,24.23
2018-12-16T17:05:05.862Z,23.30
2018-12-16T17:07:34.224Z,27.17
2018-12-16T17:10:03.575Z,22.40
2018-12-16T17:12:32.049Z,22.70
2018-12-16T17:15:00.426Z,20.67
2018-12-16T17:17:28.778Z,23.03
2018-12-16T17:19:57.179Z,21.87
2018-12-16T17:22:25.503Z,22.17
2018-12-16T17:24:53.783Z,23.93
2018-12-16T17:27:22.161Z,22.60
2018-12-16T17:29:50.551Z,22.67
2018-12-16T17:32:18.920Z,23.90
2018-12-16T17:34:47.363Z,21.93
2018-12-16T17:37:15.731Z,24.27
2018-12-16T17:39:44.112Z,25.73
2018-12-16T17:42:12.597Z,24.00
2018-12-16T17:44:41.716Z,24.67
2018-12-16T17:47:10.211Z,24.93
2018-12-16T17:49:39.390Z,20.80
2018-12-16T17:52:07.794Z,24.87
2018-12-16T17:54:36.208Z,24.27
2018-12-16T17:57:04.693Z,24.50
2018-12-16T17:59:33.147Z,24.13
2018-12-16T18:02:01.989Z,23.60
2018-12-16T18:04:30.456Z,22.60
2018-12-16T18:06:59.117Z,21.87
2018-12-16T18:09:27.537Z,23.40
2018-12-16T18:11:55.991Z,27.33
2018-12-16T18:14:24.630Z,24.13
2018-12-16T18:16:54.440Z,23.93
2018-12-16T18:19:22.990Z,23.57
2018-12-16T18:21:51.457Z,26.97
2018-12-16T18:24:19.894Z,23.80
2018-12-16T18:26:48.537Z,21.80
2018-12-16T18:29:16.904Z,25.10
2018-12-16T18:31:48.200Z,24.33
2018-12-16T18:34:18.593Z,23.40
2018-12-16T18:36:50.692Z,21.30
2018-12-16T18:39:19.913Z,24.73
2018-12-16T18:41:57.013Z,23.70
2018-12-16T18:44:28.320Z,20.63
2018-12-16T18:47:02.571Z,21.37
2018-12-16T18:49:30.909Z,23.73
2018-12-16T18:51:59.382Z,25.10
2018-12-16T18:54:27.742Z,22.30
2018-12-16T18:56:56.135Z,25.30
2018-12-16T18:59:24.562Z,23.50
2018-12-16T19:01:52.898Z,26.07
2018-12-16T19:04:21.985Z,24.57
2018-12-16T19:06:50.441Z,24.40
2018-12-16T19:09:20.439Z,25.00
2018-12-16T19:11:49.401Z,25.13
2018-12-16T19:14:22.960Z,22.00
2018-12-16T19:16:52.200Z,25.53
2018-12-16T19:19:21.732Z,23.67
2018-12-16T19:21:50.051Z,23.23
2018-12-16T19:24:18.370Z,22.93
2018-12-16T19:26:46.715Z,24.17
2018-12-16T19:29:15.088Z,26.00
2018-12-16T19:31:43.435Z,25.30
2018-12-16T19:34:11.719Z,24.07
2018-12-16T19:36:40.057Z,22.97
2018-12-16T19:39:09.701Z,24.10
2018-12-16T19:41:38.074Z,24.57
2018-12-16T19:44:06.417Z,24.03
2018-12-16T19:46:34.761Z,24.63
2018-12-16T19:49:03.123Z,24.70
2018-12-16T19:51:31.481Z,23.27
2018-12-16T19:53:59.780Z,24.57
2018-12-16T19:56:28.085Z,25.73
2018-12-16T19:58:57.045Z,23.70
2018-12-16T20:01:26.142Z,24.83
2018-12-16T20:03:59.932Z,23.10
2018-12-16T20:06:33.706Z,25.07
2018-12-16T20:09:02.347Z,27.37
2018-12-16T20:11:30.649Z,26.37
2018-12-16T20:13:58.968Z,27.07
2018-12-16T20:16:27.240Z,28.67
2018-12-16T20:18:55.570Z,29.30
2018-12-16T20:21:23.896Z,28.00
2018-12-16T20:23:52.802Z,24.13
2018-12-16T20:26:21.260Z,27.03
2018-12-16T20:28:49.610Z,24.87
2018-12-16T20:31:18.040Z,27.50
2018-12-16T20:33:46.393Z,27.03
2018-12-16T20:36:15.437Z,28.57
2018-12-16T20:38:43.840Z,26.37
2018-12-16T20:41:12.267Z,29.13
2018-12-16T20:43:40.825Z,28.03
2018-12-16T20:46:09.347Z,29.00
2018-12-16T20:48:38.416Z,27.77
2018-12-16T20:51:06.800Z,28.10
2018-12-16T20:53:35.167Z,26.80
2018-12-16T20:56:03.761Z,27.83
2018-12-16T20:58:32.251Z,27.03
2018-12-16T21:01:01.244Z,26.33
2018-12-16T21:03:29.641Z,29.03
2018-12-16T21:05:58.087Z,28.87
2018-12-16T21:08:27.012Z,26.83
2018-12-16T21:10:55.983Z,28.07
2018-12-16T21:13:29.772Z,25.50
2018-12-16T21:16:03.804Z,27.10
2018-12-16T21:18:32.172Z,27.80
2018-12-16T21:21:00.495Z,29.40
2018-12-16T21:23:28.901Z,27.13
2018-12-16T21:25:57.296Z,31.93
2018-12-16T21:28:25.662Z,29.13
2018-12-16T21:30:53.993Z,28.20
2018-12-16T21:33:22.305Z,30.50
2018-12-16T21:35:50.810Z,30.87
2018-12-16T21:38:19.294Z,29.20
2018-12-16T21:40:47.623Z,33.80
2018-12-16T21:43:15.950Z,30.37
2018-12-16T21:45:44.298Z,30.27
2018-12-16T21:48:12.681Z,28.50
2018-12-16T21:50:41.269Z,30.20
2018-12-16T21:53:10.088Z,31.07
2018-12-16T21:55:38.649Z,32.63
2018-12-16T21:58:07.163Z,34.83
2018-12-16T22:00:35.493Z,32.50
2018-12-16T22:03:03.862Z,34.10
2018-12-16T22:05:33.606Z,33.13
2018-12-16T22:08:02.410Z,31.97
2018-12-16T22:10:30.779Z,33.43
2018-12-16T22:12:59.221Z,33.67
2018-12-16T22:15:27.584Z,30.43
2018-12-16T22:17:56.026Z,31.20
2018-12-16T22:20:24.545Z,32.03
2018-12-16T22:22:52.857Z,32.30
2018-12-16T22:25:22.271Z,29.53
2018-12-16T22:27:50.758Z,29.57
2018-12-16T22:30:19.185Z,31.93
2018-12-16T22:32:47.519Z,32.30
2018-12-16T22:35:16.052Z,32.47
2018-12-16T22:37:44.595Z,34.83
2018-12-16T22:40:14.451Z,31.93
2018-12-16T22:42:43.037Z,33.63
2018-12-16T22:45:11.674Z,32.63
2018-12-16T22:47:40.010Z,30.60
2018-12-16T22:50:08.612Z,30.87
2018-12-16T22:52:36.935Z,34.07
2018-12-16T22:55:06.285Z,32.77
2018-12-16T22:57:34.756Z,32.43
2018-12-16T23:00:04.573Z,34.57
2018-12-16T23:02:32.940Z,35.87
2018-12-16T23:05:01.236Z,31.70
2018-12-16T23:07:29.823Z,33.77
2018-12-16T23:09:58.226Z,31.43
2018-12-16T23:12:26.531Z,33.87
2018-12-16T23:14:54.855Z,34.70
2018-12-16T23:17:23.243Z,35.50
2018-12-16T23:20:27.388Z,35.83
2018-12-16T23:22:56.001Z,29.60
2018-12-16T23:25:24.533Z,31.10
2018-12-16T23:27:54.266Z,34.30
2018-12-16T23:30:22.965Z,35.53
2018-12-16T23:32:51.285Z,34.23
2018-12-16T23:35:19.678Z,32.70
2018-12-16T23:37:48.026Z,32.23
2018-12-16T23:40:16.620Z,32.50
2018-12-16T23:42:44.967Z,33.07
2018-12-16T23:45:13.381Z,32.73
2018-12-16T23:47:41.804Z,33.77
2018-12-16T23:50:10.324Z,35.10
2018-12-16T23:52:39.796Z,34.23
2018-12-16T23:55:08.303Z,34.60
2018-12-16T23:57:36.930Z,32.10
